sensor_id;sensor_type;location;lat;lon;timestamp;P1;durP1;ratioP1;P2;durP2;ratioP2
23496;SDS011;11925;48.122;11.560;2023-02-28T00:01:38;4.90;;;2.40;;
23496;SDS011;11925;48.122;11.560;2023-02-28T00:04:07;5.35;;;2.90;;
23496;SDS011;11925;48.122;11.560;2023-02-28T00:06:36;3.63;;;2.28;;
23496;SDS011;11925;48.122;11.560;2023-02-28T00:09:05;4.60;;;2.60;;
23496;SDS011;11925;48.122;11.560;2023-02-28T00:11:33;5.80;;;2.60;;
23496;SDS011;11925;48.122;11.560;2023-02-28T00:14:01;5.07;;;2.90;;
23496;SDS011;11925;48.122;11.560;2023-02-28T00:16:31;4.53;;;2.75;;
23496;SDS011;11925;48.122;11.560;2023-02-28T00:18:59;4.10;;;2.50;;
23496;SDS011;11925;48.122;11.560;2023-02-28T00:21:27;5.05;;;2.97;;
23496;SDS011;11925;48.122;11.560;2023-02-28T00:23:56;4.15;;;2.45;;
23496;SDS011;11925;48.122;11.560;2023-02-28T00:26:24;6.32;;;2.78;;
23496;SDS011;11925;48.122;11.560;2023-02-28T00:28:53;3.78;;;2.40;;
23496;SDS011;11925;48.122;11.560;2023-02-28T00:31:21;4.25;;;2.70;;
23496;SDS011;11925;48.122;11.560;2023-02-28T00:33:51;4.97;;;2.85;;
23496;SDS011;11925;48.122;11.560;2023-02-28T00:36:20;5.07;;;2.50;;
23496;SDS011;11925;48.122;11.560;2023-02-28T00:38:48;5.97;;;2.72;;
23496;SDS011;11925;48.122;11.560;2023-02-28T00:41:16;3.88;;;2.38;;
23496;SDS011;11925;48.122;11.560;2023-02-28T00:43:46;5.10;;;2.80;;
23496;SDS011;11925;48.122;11.560;2023-02-28T00:46:14;4.32;;;2.58;;
23496;SDS011;11925;48.122;11.560;2023-02-28T00:48:43;4.57;;;2.47;;
23496;SDS011;11925;48.122;11.560;2023-02-28T00:51:12;5.20;;;2.63;;
23496;SDS011;11925;48.122;11.560;2023-02-28T00:53:41;5.45;;;2.50;;
23496;SDS011;11925;48.122;11.560;2023-02-28T00:56:09;5.45;;;2.60;;
23496;SDS011;11925;48.122;11.560;2023-02-28T00:58:37;4.53;;;2.80;;
23496;SDS011;11925;48.122;11.560;2023-02-28T01:01:06;5.22;;;2.60;;
23496;SDS011;11925;48.122;11.560;2023-02-28T01:03:37;4.83;;;2.60;;
23496;SDS011;11925;48.122;11.560;2023-02-28T01:06:05;4.68;;;2.65;;
23496;SDS011;11925;48.122;11.560;2023-02-28T01:08:35;4.78;;;2.72;;
23496;SDS011;11925;48.122;11.560;2023-02-28T01:11:07;6.97;;;2.63;;
23496;SDS011;11925;48.122;11.560;2023-02-28T01:13:39;6.03;;;2.72;;
23496;SDS011;11925;48.122;11.560;2023-02-28T01:16:07;5.43;;;2.70;;
23496;SDS011;11925;48.122;11.560;2023-02-28T01:18:36;4.63;;;2.58;;
23496;SDS011;11925;48.122;11.560;2023-02-28T01:21:05;4.03;;;2.50;;
23496;SDS011;11925;48.122;11.560;2023-02-28T01:23:33;4.47;;;2.45;;
23496;SDS011;11925;48.122;11.560;2023-02-28T01:26:03;4.03;;;2.72;;
23496;SDS011;11925;48.122;11.560;2023-02-28T01:28:32;4.63;;;2.45;;
23496;SDS011;11925;48.122;11.560;2023-02-28T01:31:01;4.30;;;2.63;;
23496;SDS011;11925;48.122;11.560;2023-02-28T01:33:30;5.15;;;2.47;;
23496;SDS011;11925;48.122;11.560;2023-02-28T01:35:58;4.45;;;2.72;;
23496;SDS011;11925;48.122;11.560;2023-02-28T01:38:28;6.25;;;3.03;;
23496;SDS011;11925;48.122;11.560;2023-02-28T01:40:58;3.65;;;2.63;;
23496;SDS011;11925;48.122;11.560;2023-02-28T01:43:28;6.30;;;2.92;;
23496;SDS011;11925;48.122;11.560;2023-02-28T01:45:58;4.93;;;2.63;;
23496;SDS011;11925;48.122;11.560;2023-02-28T01:48:27;4.15;;;2.38;;
23496;SDS011;11925;48.122;11.560;2023-02-28T01:50:59;5.32;;;2.72;;
23496;SDS011;11925;48.122;11.560;2023-02-28T01:53:32;6.30;;;2.75;;
23496;SDS011;11925;48.122;11.560;2023-02-28T01:56:05;5.45;;;2.60;;
23496;SDS011;11925;48.122;11.560;2023-02-28T01:58:36;5.35;;;2.88;;
23496;SDS011;11925;48.122;11.560;2023-02-28T02:03:35;3.92;;;2.53;;
23496;SDS011;11925;48.122;11.560;2023-02-28T02:06:04;4.45;;;2.97;;
23496;SDS011;11925;48.122;11.560;2023-02-28T02:08:34;4.00;;;2.67;;
23496;SDS011;11925;48.122;11.560;2023-02-28T02:11:07;4.05;;;2.97;;
23496;SDS011;11925;48.122;11.560;2023-02-28T02:16:40;5.40;;;2.83;;
23496;SDS011;11925;48.122;11.560;2023-02-28T02:19:25;7.05;;;3.15;;
23496;SDS011;11925;48.122;11.560;2023-02-28T02:22:24;6.35;;;2.90;;
23496;SDS011;11925;48.122;11.560;2023-02-28T02:25:19;5.32;;;2.97;;
23496;SDS011;11925;48.122;11.560;2023-02-28T02:28:04;5.53;;;2.85;;
23496;SDS011;11925;48.122;11.560;2023-02-28T02:31:06;5.25;;;2.92;;
23496;SDS011;11925;48.122;11.560;2023-02-28T02:36:58;4.20;;;2.92;;
23496;SDS011;11925;48.122;11.560;2023-02-28T02:39:38;4.28;;;2.70;;
23496;SDS011;11925;48.122;11.560;2023-02-28T02:42:18;6.63;;;3.30;;
23496;SDS011;11925;48.122;11.560;2023-02-28T02:44:54;5.65;;;2.55;;
23496;SDS011;11925;48.122;11.560;2023-02-28T02:47:27;5.00;;;3.00;;
23496;SDS011;11925;48.122;11.560;2023-02-28T02:50:01;4.18;;;2.65;;
23496;SDS011;11925;48.122;11.560;2023-02-28T02:52:34;5.32;;;3.20;;
23496;SDS011;11925;48.122;11.560;2023-02-28T02:55:07;4.57;;;3.13;;
23496;SDS011;11925;48.122;11.560;2023-02-28T02:57:39;6.05;;;3.42;;
23496;SDS011;11925;48.122;11.560;2023-02-28T03:00:13;3.80;;;2.97;;
23496;SDS011;11925;48.122;11.560;2023-02-28T03:02:46;5.85;;;3.60;;
23496;SDS011;11925;48.122;11.560;2023-02-28T03:05:18;6.32;;;3.10;;
23496;SDS011;11925;48.122;11.560;2023-02-28T03:07:49;4.60;;;3.05;;
23496;SDS011;11925;48.122;11.560;2023-02-28T03:10:28;4.75;;;2.65;;
23496;SDS011;11925;48.122;11.560;2023-02-28T03:13:02;6.78;;;3.03;;
23496;SDS011;11925;48.122;11.560;2023-02-28T03:15:50;6.03;;;3.17;;
23496;SDS011;11925;48.122;11.560;2023-02-28T03:18:48;5.70;;;3.03;;
23496;SDS011;11925;48.122;11.560;2023-02-28T03:21:25;7.05;;;2.92;;
23496;SDS011;11925;48.122;11.560;2023-02-28T03:24:02;5.00;;;3.08;;
23496;SDS011;11925;48.122;11.560;2023-02-28T03:26:36;5.47;;;3.10;;
23496;SDS011;11925;48.122;11.560;2023-02-28T03:29:12;5.03;;;3.22;;
23496;SDS011;11925;48.122;11.560;2023-02-28T03:31:45;5.18;;;3.08;;
23496;SDS011;11925;48.122;11.560;2023-02-28T03:34:22;4.85;;;3.30;;
23496;SDS011;11925;48.122;11.560;2023-02-28T03:36:59;5.10;;;3.42;;
23496;SDS011;11925;48.122;11.560;2023-02-28T03:39:34;5.25;;;3.10;;
23496;SDS011;11925;48.122;11.560;2023-02-28T03:42:07;6.20;;;3.53;;
23496;SDS011;11925;48.122;11.560;2023-02-28T03:44:39;7.57;;;3.67;;
23496;SDS011;11925;48.122;11.560;2023-02-28T03:47:10;4.88;;;3.20;;
23496;SDS011;11925;48.122;11.560;2023-02-28T03:49:43;4.85;;;3.38;;
23496;SDS011;11925;48.122;11.560;2023-02-28T03:52:16;7.13;;;3.75;;
23496;SDS011;11925;48.122;11.560;2023-02-28T03:54:50;5.35;;;3.33;;
23496;SDS011;11925;48.122;11.560;2023-02-28T03:57:23;5.13;;;3.80;;
23496;SDS011;11925;48.122;11.560;2023-02-28T03:59:58;5.13;;;3.30;;
23496;SDS011;11925;48.122;11.560;2023-02-28T04:02:37;5.50;;;3.60;;
23496;SDS011;11925;48.122;11.560;2023-02-28T04:05:06;5.97;;;3.50;;
23496;SDS011;11925;48.122;11.560;2023-02-28T04:07:36;6.07;;;3.88;;
23496;SDS011;11925;48.122;11.560;2023-02-28T04:10:05;5.22;;;3.83;;
23496;SDS011;11925;48.122;11.560;2023-02-28T04:12:34;6.40;;;3.78;;
23496;SDS011;11925;48.122;11.560;2023-02-28T04:15:03;4.50;;;3.53;;
23496;SDS011;11925;48.122;11.560;2023-02-28T04:17:32;6.13;;;3.97;;
23496;SDS011;11925;48.122;11.560;2023-02-28T04:20:00;5.22;;;3.53;;
23496;SDS011;11925;48.122;11.560;2023-02-28T04:22:29;6.90;;;4.03;;
23496;SDS011;11925;48.122;11.560;2023-02-28T04:24:59;6.25;;;3.90;;
23496;SDS011;11925;48.122;11.560;2023-02-28T04:27:27;6.25;;;4.30;;
23496;SDS011;11925;48.122;11.560;2023-02-28T04:29:58;6.40;;;4.07;;
23496;SDS011;11925;48.122;11.560;2023-02-28T04:32:26;6.50;;;4.07;;
23496;SDS011;11925;48.122;11.560;2023-02-28T04:34:54;8.13;;;4.38;;
23496;SDS011;11925;48.122;11.560;2023-02-28T04:37:23;6.38;;;4.03;;
23496;SDS011;11925;48.122;11.560;2023-02-28T04:39:55;8.10;;;4.63;;
23496;SDS011;11925;48.122;11.560;2023-02-28T04:42:24;7.28;;;4.70;;
23496;SDS011;11925;48.122;11.560;2023-02-28T04:44:53;6.22;;;4.30;;
23496;SDS011;11925;48.122;11.560;2023-02-28T04:47:21;6.70;;;4.43;;
23496;SDS011;11925;48.122;11.560;2023-02-28T04:49:49;7.90;;;4.38;;
23496;SDS011;11925;48.122;11.560;2023-02-28T04:52:18;8.32;;;4.95;;
23496;SDS011;11925;48.122;11.560;2023-02-28T04:54:46;7.20;;;4.60;;
23496;SDS011;11925;48.122;11.560;2023-02-28T04:57:14;8.00;;;5.13;;
23496;SDS011;11925;48.122;11.560;2023-02-28T04:59:44;8.07;;;4.90;;
23496;SDS011;11925;48.122;11.560;2023-02-28T05:02:12;6.55;;;4.57;;
23496;SDS011;11925;48.122;11.560;2023-02-28T05:04:41;6.72;;;4.55;;
23496;SDS011;11925;48.122;11.560;2023-02-28T05:07:09;7.43;;;5.00;;
23496;SDS011;11925;48.122;11.560;2023-02-28T05:09:38;8.15;;;5.05;;
23496;SDS011;11925;48.122;11.560;2023-02-28T05:12:06;7.18;;;5.43;;
23496;SDS011;11925;48.122;11.560;2023-02-28T05:14:36;7.95;;;5.43;;
23496;SDS011;11925;48.122;11.560;2023-02-28T05:17:05;6.85;;;4.80;;
23496;SDS011;11925;48.122;11.560;2023-02-28T05:19:34;8.98;;;5.82;;
23496;SDS011;11925;48.122;11.560;2023-02-28T05:22:02;7.80;;;5.57;;
23496;SDS011;11925;48.122;11.560;2023-02-28T05:24:30;8.40;;;5.50;;
23496;SDS011;11925;48.122;11.560;2023-02-28T05:26:59;8.20;;;5.65;;
23496;SDS011;11925;48.122;11.560;2023-02-28T05:29:27;9.43;;;5.88;;
23496;SDS011;11925;48.122;11.560;2023-02-28T05:31:55;10.23;;;6.43;;
23496;SDS011;11925;48.122;11.560;2023-02-28T05:34:25;9.45;;;6.43;;
23496;SDS011;11925;48.122;11.560;2023-02-28T05:36:53;8.85;;;5.72;;
23496;SDS011;11925;48.122;11.560;2023-02-28T05:39:22;8.23;;;5.65;;
23496;SDS011;11925;48.122;11.560;2023-02-28T05:41:50;10.63;;;7.00;;
23496;SDS011;11925;48.122;11.560;2023-02-28T05:44:18;8.63;;;5.57;;
23496;SDS011;11925;48.122;11.560;2023-02-28T05:46:46;10.85;;;6.43;;
23496;SDS011;11925;48.122;11.560;2023-02-28T05:49:16;10.70;;;6.47;;
23496;SDS011;11925;48.122;11.560;2023-02-28T05:51:45;10.02;;;6.80;;
23496;SDS011;11925;48.122;11.560;2023-02-28T05:54:13;9.85;;;6.13;;
23496;SDS011;11925;48.122;11.560;2023-02-28T06:00:30;11.70;;;6.70;;
23496;SDS011;11925;48.122;11.560;2023-02-28T06:02:58;10.07;;;6.85;;
23496;SDS011;11925;48.122;11.560;2023-02-28T06:05:28;10.32;;;6.95;;
23496;SDS011;11925;48.122;11.560;2023-02-28T06:07:58;10.60;;;7.15;;
23496;SDS011;11925;48.122;11.560;2023-02-28T06:10:26;10.45;;;7.72;;
23496;SDS011;11925;48.122;11.560;2023-02-28T06:12:55;10.70;;;7.47;;
23496;SDS011;11925;48.122;11.560;2023-02-28T06:15:24;12.50;;;8.10;;
23496;SDS011;11925;48.122;11.560;2023-02-28T06:17:52;12.60;;;8.32;;
23496;SDS011;11925;48.122;11.560;2023-02-28T06:20:22;12.15;;;8.00;;
23496;SDS011;11925;48.122;11.560;2023-02-28T06:22:52;12.45;;;8.23;;
23496;SDS011;11925;48.122;11.560;2023-02-28T06:25:23;11.95;;;8.35;;
23496;SDS011;11925;48.122;11.560;2023-02-28T06:27:52;11.77;;;8.35;;
23496;SDS011;11925;48.122;11.560;2023-02-28T06:30:21;12.20;;;8.38;;
23496;SDS011;11925;48.122;11.560;2023-02-28T06:32:51;11.67;;;7.80;;
23496;SDS011;11925;48.122;11.560;2023-02-28T06:35:20;11.25;;;8.05;;
23496;SDS011;11925;48.122;11.560;2023-02-28T06:37:48;12.90;;;8.88;;
23496;SDS011;11925;48.122;11.560;2023-02-28T06:40:17;13.25;;;8.68;;
23496;SDS011;11925;48.122;11.560;2023-02-28T06:42:46;14.60;;;9.32;;
23496;SDS011;11925;48.122;11.560;2023-02-28T06:45:15;13.05;;;8.68;;
23496;SDS011;11925;48.122;11.560;2023-02-28T06:47:43;12.77;;;8.88;;
23496;SDS011;11925;48.122;11.560;2023-02-28T06:50:11;14.05;;;9.32;;
23496;SDS011;11925;48.122;11.560;2023-02-28T06:52:40;12.88;;;9.30;;
23496;SDS011;11925;48.122;11.560;2023-02-28T06:55:08;13.63;;;9.40;;
23496;SDS011;11925;48.122;11.560;2023-02-28T06:57:37;13.10;;;8.95;;
23496;SDS011;11925;48.122;11.560;2023-02-28T07:00:07;13.20;;;8.98;;
23496;SDS011;11925;48.122;11.560;2023-02-28T07:02:37;17.60;;;10.10;;
23496;SDS011;11925;48.122;11.560;2023-02-28T07:05:05;14.40;;;9.70;;
23496;SDS011;11925;48.122;11.560;2023-02-28T07:07:34;15.82;;;9.82;;
23496;SDS011;11925;48.122;11.560;2023-02-28T07:10:05;14.98;;;9.60;;
23496;SDS011;11925;48.122;11.560;2023-02-28T07:12:33;14.10;;;9.70;;
23496;SDS011;11925;48.122;11.560;2023-02-28T07:15:03;15.13;;;9.73;;
23496;SDS011;11925;48.122;11.560;2023-02-28T07:17:34;15.30;;;9.30;;
23496;SDS011;11925;48.122;11.560;2023-02-28T07:20:02;14.35;;;9.65;;
23496;SDS011;11925;48.122;11.560;2023-02-28T07:22:31;13.32;;;9.20;;
23496;SDS011;11925;48.122;11.560;2023-02-28T07:24:59;14.75;;;9.85;;
23496;SDS011;11925;48.122;11.560;2023-02-28T07:27:28;14.48;;;9.93;;
23496;SDS011;11925;48.122;11.560;2023-02-28T07:29:56;15.05;;;9.57;;
23496;SDS011;11925;48.122;11.560;2023-02-28T07:34:57;14.48;;;9.43;;
23496;SDS011;11925;48.122;11.560;2023-02-28T07:37:25;14.18;;;9.82;;
23496;SDS011;11925;48.122;11.560;2023-02-28T07:39:53;14.07;;;9.82;;
23496;SDS011;11925;48.122;11.560;2023-02-28T07:42:22;14.75;;;9.93;;
23496;SDS011;11925;48.122;11.560;2023-02-28T07:44:50;16.05;;;10.23;;
23496;SDS011;11925;48.122;11.560;2023-02-28T07:47:19;16.90;;;10.48;;
23496;SDS011;11925;48.122;11.560;2023-02-28T07:49:50;15.43;;;9.90;;
23496;SDS011;11925;48.122;11.560;2023-02-28T07:52:20;14.45;;;10.05;;
23496;SDS011;11925;48.122;11.560;2023-02-28T07:54:50;14.43;;;10.27;;
23496;SDS011;11925;48.122;11.560;2023-02-28T07:57:18;13.30;;;9.60;;
23496;SDS011;11925;48.122;11.560;2023-02-28T07:59:46;15.10;;;9.88;;
23496;SDS011;11925;48.122;11.560;2023-02-28T08:02:15;16.00;;;10.02;;
23496;SDS011;11925;48.122;11.560;2023-02-28T08:04:45;13.70;;;9.38;;
23496;SDS011;11925;48.122;11.560;2023-02-28T08:07:14;16.02;;;10.02;;
23496;SDS011;11925;48.122;11.560;2023-02-28T08:09:44;16.70;;;10.30;;
23496;SDS011;11925;48.122;11.560;2023-02-28T08:12:12;14.45;;;10.57;;
23496;SDS011;11925;48.122;11.560;2023-02-28T08:14:41;14.57;;;9.80;;
23496;SDS011;11925;48.122;11.560;2023-02-28T08:17:09;12.27;;;9.55;;
23496;SDS011;11925;48.122;11.560;2023-02-28T08:19:38;13.85;;;9.65;;
23496;SDS011;11925;48.122;11.560;2023-02-28T08:22:06;12.88;;;9.80;;
23496;SDS011;11925;48.122;11.560;2023-02-28T08:24:35;12.93;;;10.15;;
23496;SDS011;11925;48.122;11.560;2023-02-28T08:27:04;14.07;;;9.93;;
23496;SDS011;11925;48.122;11.560;2023-02-28T08:29:33;14.90;;;9.95;;
23496;SDS011;11925;48.122;11.560;2023-02-28T08:32:01;15.50;;;9.95;;
23496;SDS011;11925;48.122;11.560;2023-02-28T08:34:29;15.65;;;10.57;;
23496;SDS011;11925;48.122;11.560;2023-02-28T08:36:58;12.80;;;9.77;;
23496;SDS011;11925;48.122;11.560;2023-02-28T08:39:26;12.38;;;9.73;;
23496;SDS011;11925;48.122;11.560;2023-02-28T08:41:55;14.90;;;10.10;;
23496;SDS011;11925;48.122;11.560;2023-02-28T08:44:34;15.50;;;10.52;;
23496;SDS011;11925;48.122;11.560;2023-02-28T08:47:02;14.88;;;9.93;;
23496;SDS011;11925;48.122;11.560;2023-02-28T08:49:31;15.70;;;10.57;;
23496;SDS011;11925;48.122;11.560;2023-02-28T08:51:59;14.18;;;10.18;;
23496;SDS011;11925;48.122;11.560;2023-02-28T08:54:28;16.35;;;11.32;;
23496;SDS011;11925;48.122;11.560;2023-02-28T08:56:57;14.82;;;10.40;;
23496;SDS011;11925;48.122;11.560;2023-02-28T08:59:26;13.98;;;9.93;;
23496;SDS011;11925;48.122;11.560;2023-02-28T09:01:56;12.93;;;10.30;;
23496;SDS011;11925;48.122;11.560;2023-02-28T09:04:24;13.63;;;9.95;;
23496;SDS011;11925;48.122;11.560;2023-02-28T09:06:52;15.10;;;10.00;;
23496;SDS011;11925;48.122;11.560;2023-02-28T09:09:20;16.50;;;10.63;;
23496;SDS011;11925;48.122;11.560;2023-02-28T09:11:49;14.40;;;10.60;;
23496;SDS011;11925;48.122;11.560;2023-02-28T09:14:17;15.27;;;10.52;;
23496;SDS011;11925;48.122;11.560;2023-02-28T09:16:46;13.73;;;10.50;;
23496;SDS011;11925;48.122;11.560;2023-02-28T09:19:15;15.77;;;10.20;;
23496;SDS011;11925;48.122;11.560;2023-02-28T09:21:44;15.93;;;9.48;;
23496;SDS011;11925;48.122;11.560;2023-02-28T09:24:12;13.60;;;10.00;;
23496;SDS011;11925;48.122;11.560;2023-02-28T09:26:41;15.18;;;10.38;;
23496;SDS011;11925;48.122;11.560;2023-02-28T09:29:29;16.10;;;10.70;;
23496;SDS011;11925;48.122;11.560;2023-02-28T09:31:57;12.88;;;10.38;;
23496;SDS011;11925;48.122;11.560;2023-02-28T09:34:28;16.52;;;10.38;;
23496;SDS011;11925;48.122;11.560;2023-02-28T09:36:57;13.45;;;9.90;;
23496;SDS011;11925;48.122;11.560;2023-02-28T09:39:26;14.13;;;10.63;;
23496;SDS011;11925;48.122;11.560;2023-02-28T09:41:55;14.93;;;10.35;;
23496;SDS011;11925;48.122;11.560;2023-02-28T09:44:26;14.18;;;10.60;;
23496;SDS011;11925;48.122;11.560;2023-02-28T09:46:58;15.95;;;10.57;;
23496;SDS011;11925;48.122;11.560;2023-02-28T09:49:34;15.68;;;10.82;;
23496;SDS011;11925;48.122;11.560;2023-02-28T09:52:09;16.63;;;10.35;;
23496;SDS011;11925;48.122;11.560;2023-02-28T09:54:40;15.10;;;10.63;;
23496;SDS011;11925;48.122;11.560;2023-02-28T09:57:09;13.73;;;10.55;;
23496;SDS011;11925;48.122;11.560;2023-02-28T09:59:49;14.13;;;11.30;;
23496;SDS011;11925;48.122;11.560;2023-02-28T10:02:32;14.52;;;10.63;;
23496;SDS011;11925;48.122;11.560;2023-02-28T10:05:20;14.98;;;10.90;;
23496;SDS011;11925;48.122;11.560;2023-02-28T10:07:55;16.73;;;11.10;;
23496;SDS011;11925;48.122;11.560;2023-02-28T10:10:33;15.13;;;11.25;;
23496;SDS011;11925;48.122;11.560;2023-02-28T10:13:06;14.65;;;10.88;;
23496;SDS011;11925;48.122;11.560;2023-02-28T10:15:43;16.30;;;11.32;;
23496;SDS011;11925;48.122;11.560;2023-02-28T10:18:14;17.98;;;11.23;;
23496;SDS011;11925;48.122;11.560;2023-02-28T10:20:49;14.70;;;10.75;;
23496;SDS011;11925;48.122;11.560;2023-02-28T10:23:20;14.93;;;11.35;;
23496;SDS011;11925;48.122;11.560;2023-02-28T10:25:52;15.10;;;10.65;;
23496;SDS011;11925;48.122;11.560;2023-02-28T10:28:23;17.02;;;11.75;;
23496;SDS011;11925;48.122;11.560;2023-02-28T10:30:53;16.40;;;11.00;;
23496;SDS011;11925;48.122;11.560;2023-02-28T10:33:23;15.90;;;10.77;;
23496;SDS011;11925;48.122;11.560;2023-02-28T10:35:56;14.88;;;11.02;;
23496;SDS011;11925;48.122;11.560;2023-02-28T10:38:26;15.60;;;11.02;;
23496;SDS011;11925;48.122;11.560;2023-02-28T10:41:05;16.67;;;11.60;;
23496;SDS011;11925;48.122;11.560;2023-02-28T10:43:36;16.05;;;11.25;;
23496;SDS011;11925;48.122;11.560;2023-02-28T10:46:11;16.83;;;11.88;;
23496;SDS011;11925;48.122;11.560;2023-02-28T10:49:00;16.90;;;11.57;;
23496;SDS011;11925;48.122;11.560;2023-02-28T10:51:36;15.15;;;11.07;;
23496;SDS011;11925;48.122;11.560;2023-02-28T10:54:05;18.15;;;11.13;;
23496;SDS011;11925;48.122;11.560;2023-02-28T10:56:42;16.02;;;11.20;;
23496;SDS011;11925;48.122;11.560;2023-02-28T10:59:26;16.70;;;11.00;;
23496;SDS011;11925;48.122;11.560;2023-02-28T11:01:56;16.38;;;10.93;;
23496;SDS011;11925;48.122;11.560;2023-02-28T11:04:32;15.73;;;11.00;;
23496;SDS011;11925;48.122;11.560;2023-02-28T11:07:06;14.13;;;10.65;;
23496;SDS011;11925;48.122;11.560;2023-02-28T11:09:48;16.48;;;10.95;;
23496;SDS011;11925;48.122;11.560;2023-02-28T11:12:22;15.07;;;11.20;;
23496;SDS011;11925;48.122;11.560;2023-02-28T11:14:53;15.50;;;10.55;;
23496;SDS011;11925;48.122;11.560;2023-02-28T11:17:24;14.70;;;10.68;;
23496;SDS011;11925;48.122;11.560;2023-02-28T11:19:56;18.25;;;11.10;;
23496;SDS011;11925;48.122;11.560;2023-02-28T11:22:31;18.50;;;11.05;;
23496;SDS011;11925;48.122;11.560;2023-02-28T11:25:06;14.98;;;10.57;;
23496;SDS011;11925;48.122;11.560;2023-02-28T11:27:45;17.15;;;10.88;;
23496;SDS011;11925;48.122;11.560;2023-02-28T11:33:23;18.80;;;11.52;;
23496;SDS011;11925;48.122;11.560;2023-02-28T11:35:57;17.02;;;11.30;;
23496;SDS011;11925;48.122;11.560;2023-02-28T11:38:29;15.85;;;11.05;;
23496;SDS011;11925;48.122;11.560;2023-02-28T11:41:14;15.13;;;11.10;;
23496;SDS011;11925;48.122;11.560;2023-02-28T11:46:51;15.82;;;11.57;;
23496;SDS011;11925;48.122;11.560;2023-02-28T11:49:30;16.95;;;11.65;;
23496;SDS011;11925;48.122;11.560;2023-02-28T11:52:04;16.17;;;10.98;;
23496;SDS011;11925;48.122;11.560;2023-02-28T11:57:46;17.92;;;10.70;;
23496;SDS011;11925;48.122;11.560;2023-02-28T12:00:28;17.33;;;10.60;;
23496;SDS011;11925;48.122;11.560;2023-02-28T12:03:13;15.85;;;10.75;;
23496;SDS011;11925;48.122;11.560;2023-02-28T12:05:50;16.77;;;11.15;;
23496;SDS011;11925;48.122;11.560;2023-02-28T12:08:29;17.10;;;11.18;;
23496;SDS011;11925;48.122;11.560;2023-02-28T12:11:12;14.05;;;10.30;;
23496;SDS011;11925;48.122;11.560;2023-02-28T12:13:50;14.25;;;10.05;;
23496;SDS011;11925;48.122;11.560;2023-02-28T12:16:40;16.77;;;11.63;;
23496;SDS011;11925;48.122;11.560;2023-02-28T12:19:21;15.55;;;10.18;;
23496;SDS011;11925;48.122;11.560;2023-02-28T12:22:01;15.93;;;10.30;;
23496;SDS011;11925;48.122;11.560;2023-02-28T12:27:59;16.65;;;10.48;;
23496;SDS011;11925;48.122;11.560;2023-02-28T12:30:28;15.98;;;10.77;;
23496;SDS011;11925;48.122;11.560;2023-02-28T12:33:01;18.20;;;11.88;;
23496;SDS011;11925;48.122;11.560;2023-02-28T12:35:34;16.02;;;10.93;;
23496;SDS011;11925;48.122;11.560;2023-02-28T12:38:08;15.77;;;11.27;;
23496;SDS011;11925;48.122;11.560;2023-02-28T12:40:42;18.50;;;10.57;;
23496;SDS011;11925;48.122;11.560;2023-02-28T12:43:15;15.20;;;11.07;;
23496;SDS011;11925;48.122;11.560;2023-02-28T12:45:46;17.77;;;10.63;;
23496;SDS011;11925;48.122;11.560;2023-02-28T12:48:20;18.75;;;10.80;;
23496;SDS011;11925;48.122;11.560;2023-02-28T12:50:53;19.23;;;10.98;;
23496;SDS011;11925;48.122;11.560;2023-02-28T12:53:23;13.98;;;10.80;;
23496;SDS011;11925;48.122;11.560;2023-02-28T12:56:02;15.23;;;10.63;;
23496;SDS011;11925;48.122;11.560;2023-02-28T12:58:39;17.15;;;10.50;;
23496;SDS011;11925;48.122;11.560;2023-02-28T13:01:20;13.90;;;10.02;;
23496;SDS011;11925;48.122;11.560;2023-02-28T13:04:12;14.02;;;9.65;;
23496;SDS011;11925;48.122;11.560;2023-02-28T13:06:59;15.23;;;10.05;;
23496;SDS011;11925;48.122;11.560;2023-02-28T13:09:40;13.93;;;9.85;;
23496;SDS011;11925;48.122;11.560;2023-02-28T13:12:12;13.32;;;9.75;;
23496;SDS011;11925;48.122;11.560;2023-02-28T13:14:43;15.52;;;10.13;;
23496;SDS011;11925;48.122;11.560;2023-02-28T13:17:11;14.10;;;10.60;;
23496;SDS011;11925;48.122;11.560;2023-02-28T13:19:46;13.27;;;9.90;;
23496;SDS011;11925;48.122;11.560;2023-02-28T13:22:38;14.68;;;10.02;;
23496;SDS011;11925;48.122;11.560;2023-02-28T13:34:38;14.82;;;10.07;;
23496;SDS011;11925;48.122;11.560;2023-02-28T13:42:55;13.15;;;9.60;;
23496;SDS011;11925;48.122;11.560;2023-02-28T13:45:25;16.60;;;10.43;;
23496;SDS011;11925;48.122;11.560;2023-02-28T13:47:55;13.88;;;10.10;;
23496;SDS011;11925;48.122;11.560;2023-02-28T13:50:29;14.40;;;10.35;;
23496;SDS011;11925;48.122;11.560;2023-02-28T13:56:07;13.82;;;9.95;;
23496;SDS011;11925;48.122;11.560;2023-02-28T13:58:53;14.77;;;9.35;;
23496;SDS011;11925;48.122;11.560;2023-02-28T14:01:42;14.95;;;9.55;;
23496;SDS011;11925;48.122;11.560;2023-02-28T14:04:42;13.60;;;9.32;;
23496;SDS011;11925;48.122;11.560;2023-02-28T14:07:19;13.60;;;9.00;;
23496;SDS011;11925;48.122;11.560;2023-02-28T14:09:54;12.82;;;9.30;;
23496;SDS011;11925;48.122;11.560;2023-02-28T14:12:51;14.15;;;9.77;;
23496;SDS011;11925;48.122;11.560;2023-02-28T14:15:25;17.50;;;9.45;;
23496;SDS011;11925;48.122;11.560;2023-02-28T14:18:23;14.63;;;10.30;;
23496;SDS011;11925;48.122;11.560;2023-02-28T14:21:10;13.40;;;9.52;;
23496;SDS011;11925;48.122;11.560;2023-02-28T14:23:50;13.75;;;9.65;;
23496;SDS011;11925;48.122;11.560;2023-02-28T14:26:57;12.23;;;9.55;;
23496;SDS011;11925;48.122;11.560;2023-02-28T14:29:42;16.52;;;10.05;;
23496;SDS011;11925;48.122;11.560;2023-02-28T14:32:35;15.25;;;10.98;;
23496;SDS011;11925;48.122;11.560;2023-02-28T14:35:12;15.65;;;10.35;;
23496;SDS011;11925;48.122;11.560;2023-02-28T14:37:48;14.60;;;10.43;;
23496;SDS011;11925;48.122;11.560;2023-02-28T14:40:19;15.05;;;10.23;;
23496;SDS011;11925;48.122;11.560;2023-02-28T14:42:54;15.40;;;10.25;;
23496;SDS011;11925;48.122;11.560;2023-02-28T14:47:54;16.13;;;9.32;;
23496;SDS011;11925;48.122;11.560;2023-02-28T14:50:24;15.10;;;9.95;;
23496;SDS011;11925;48.122;11.560;2023-02-28T14:52:56;13.82;;;9.73;;
23496;SDS011;11925;48.122;11.560;2023-02-28T14:55:28;12.80;;;9.15;;
23496;SDS011;11925;48.122;11.560;2023-02-28T14:57:58;15.60;;;9.27;;
23496;SDS011;11925;48.122;11.560;2023-02-28T15:00:29;16.25;;;9.57;;
23496;SDS011;11925;48.122;11.560;2023-02-28T15:02:59;13.60;;;9.07;;
23496;SDS011;11925;48.122;11.560;2023-02-28T15:05:30;12.07;;;8.57;;
23496;SDS011;11925;48.122;11.560;2023-02-28T15:08:06;16.30;;;9.88;;
23496;SDS011;11925;48.122;11.560;2023-02-28T15:10:41;14.18;;;9.85;;
23496;SDS011;11925;48.122;11.560;2023-02-28T15:13:12;12.85;;;9.32;;
23496;SDS011;11925;48.122;11.560;2023-02-28T15:15:43;16.13;;;9.63;;
23496;SDS011;11925;48.122;11.560;2023-02-28T15:18:32;13.02;;;8.68;;
23496;SDS011;11925;48.122;11.560;2023-02-28T15:21:09;11.50;;;8.57;;
23496;SDS011;11925;48.122;11.560;2023-02-28T15:23:43;11.82;;;8.95;;
23496;SDS011;11925;48.122;11.560;2023-02-28T15:26:16;12.93;;;8.93;;
23496;SDS011;11925;48.122;11.560;2023-02-28T15:28:57;13.63;;;9.35;;
23496;SDS011;11925;48.122;11.560;2023-02-28T15:31:28;13.27;;;9.20;;
23496;SDS011;11925;48.122;11.560;2023-02-28T15:34:19;10.95;;;8.45;;
23496;SDS011;11925;48.122;11.560;2023-02-28T15:36:53;13.15;;;9.23;;
23496;SDS011;11925;48.122;11.560;2023-02-28T15:39:23;14.70;;;9.40;;
23496;SDS011;11925;48.122;11.560;2023-02-28T15:44:45;12.88;;;8.95;;